메인 페이지
METAR-TAF:

METAR-TAF

공항 :

라부안, 말레이시아

위도: 05-18N, 경도: 115-15E, 고도: 30m

현재 날씨관측

예보는 22분 전, 08:00시(UTC)에 발표되었습니다.
여러 방향의 바람 2kt
온도 31°C
습도 71%
기압 1006 hPa
시정 10km 이상
고도 1500ft 상공 구름 조금
고도 1700ft 상공 구름 조금, 적란운.

METAR: WBKL 210800Z VRB02KT 9999 FEW015 FEW017CB 31/25 Q1006

시각: 16:22 (08:22 UTC)

예보

예보는 3 시간 22분 전, 05:00시(UTC)에 발표되었습니다.
예보 대상 시간: 21일 06시부터 22일 06시까지 (UTC)
여러 방향의 바람 2kt
시정 10km 이상
고도 1400ft 상공 구름 조금
일시적
21일 12시부터 21일 16시까지 (UTC)
시정: 4000m
고도 1000ft 상공 구름 조금
고도 1600ft 상공 구름 조금, 적란운.
고도 3000ft 상공 구름 보통
뇌우, 비,

TAF: WBKL 210500Z 2106/2206 VRB02KT 9999 FEW014 TEMPO 2112/2116 4000 TSRA FEW010 FEW016CB SCT030

4,000개 이상의 공항 관측 자료 및 예보 (METAR 및 TAF 보고).

지도상에서 검색 가능한 기상관측소가 노란 점과 빨간 점으로 표시되어 있습니다.

기상관측소 명을 보려면 표시 위로 마우스를 이동하세요.

날씨 관측과 예보를 보려면 클릭하세요.

지도 변경 : 확대하려면 엑스 표시가 있는 녹색 버튼, 축소하려면 빼기 표시가 있는 녹색 버튼, 다음 페이지의 지도를 보려면 녹색 화살표를 클릭하세요.


METAR-TAF: